sensor_id;sensor_type;location;lat;lon;timestamp;pressure;altitude;pressure_sealevel;temperature;humidity
77013;BME280;67260;53.130;17.982;2023-02-01T02:45:47;99930.48;;;3.50;81.55
77013;BME280;67260;53.130;17.982;2023-02-01T02:49:05;99934.58;;;3.50;79.54
77013;BME280;67260;53.130;17.982;2023-02-01T02:51:46;99933.21;;;3.39;80.26
77013;BME280;67260;53.130;17.982;2023-02-01T02:54:39;99938.19;;;3.30;80.55
77013;BME280;67260;53.130;17.982;2023-02-01T02:57:20;99935.59;;;3.21;80.09
77013;BME280;67260;53.130;17.982;2023-02-01T03:00:11;99936.55;;;3.15;79.89
77013;BME280;67260;53.130;17.982;2023-02-01T03:02:58;99931.18;;;3.12;80.05
77013;BME280;67260;53.130;17.982;2023-02-01T03:05:45;99936.63;;;3.08;79.86
77013;BME280;67260;53.130;17.982;2023-02-01T03:16:30;99936.07;;;3.06;80.80
77013;BME280;67260;53.130;17.982;2023-02-01T03:19:14;99930.73;;;3.07;79.37
77013;BME280;67260;53.130;17.982;2023-02-01T03:21:47;99932.27;;;3.06;80.25
77013;BME280;67260;53.130;17.982;2023-02-01T03:24:26;99934.85;;;3.05;78.08
77013;BME280;67260;53.130;17.982;2023-02-01T03:29:46;99920.21;;;3.09;79.85
77013;BME280;67260;53.130;17.982;2023-02-01T03:32:16;99932.80;;;3.09;78.81
77013;BME280;67260;53.130;17.982;2023-02-01T03:34:44;99921.18;;;3.06;78.02
77013;BME280;67260;53.130;17.982;2023-02-01T03:37:15;99923.35;;;3.06;77.79
77013;BME280;67260;53.130;17.982;2023-02-01T03:39:53;99929.48;;;3.09;78.36
77013;BME280;67260;53.130;17.982;2023-02-01T03:42:28;99927.05;;;3.10;78.40
77013;BME280;67260;53.130;17.982;2023-02-01T03:45:11;99922.10;;;3.10;79.67
77013;BME280;67260;53.130;17.982;2023-02-01T03:47:43;99925.56;;;3.08;79.29
77013;BME280;67260;53.130;17.982;2023-02-01T03:50:17;99929.06;;;3.05;79.56
77013;BME280;67260;53.130;17.982;2023-02-01T03:52:52;99930.45;;;3.05;79.08
77013;BME280;67260;53.130;17.982;2023-02-01T03:55:23;99925.61;;;3.06;78.43
77013;BME280;67260;53.130;17.982;2023-02-01T04:00:38;99921.49;;;3.04;78.45
77013;BME280;67260;53.130;17.982;2023-02-01T04:03:07;99912.16;;;3.03;78.46
77013;BME280;67260;53.130;17.982;2023-02-01T04:05:34;99914.17;;;3.00;77.94
77013;BME280;67260;53.130;17.982;2023-02-01T04:08:04;99916.58;;;3.01;77.96
77013;BME280;67260;53.130;17.982;2023-02-01T04:10:31;99912.48;;;3.05;78.01
77013;BME280;67260;53.130;17.982;2023-02-01T04:12:58;99921.38;;;3.09;78.33
77013;BME280;67260;53.130;17.982;2023-02-01T04:15:25;99923.71;;;3.10;78.35
77013;BME280;67260;53.130;17.982;2023-02-01T04:17:51;99925.36;;;3.11;79.09
77013;BME280;67260;53.130;17.982;2023-02-01T04:20:18;99916.54;;;3.06;78.58
77013;BME280;67260;53.130;17.982;2023-02-01T04:22:45;99911.63;;;3.00;78.92
77013;BME280;67260;53.130;17.982;2023-02-01T04:25:12;99907.02;;;2.97;79.31
77013;BME280;67260;53.130;17.982;2023-02-01T04:27:39;99906.62;;;3.00;79.22
77013;BME280;67260;53.130;17.982;2023-02-01T04:30:07;99906.40;;;3.01;79.15
77013;BME280;67260;53.130;17.982;2023-02-01T04:32:36;99906.85;;;3.04;79.72
77013;BME280;67260;53.130;17.982;2023-02-01T04:35:05;99908.70;;;3.06;79.68
77013;BME280;67260;53.130;17.982;2023-02-01T04:37:32;99910.55;;;3.08;80.36
77013;BME280;67260;53.130;17.982;2023-02-01T04:39:59;99914.52;;;3.07;80.48
77013;BME280;67260;53.130;17.982;2023-02-01T04:42:26;99913.83;;;3.03;80.88
77013;BME280;67260;53.130;17.982;2023-02-01T04:44:52;99912.36;;;2.98;80.88
77013;BME280;67260;53.130;17.982;2023-02-01T04:47:19;99903.17;;;2.91;80.77
77013;BME280;67260;53.130;17.982;2023-02-01T04:49:45;99901.89;;;2.84;81.31
77013;BME280;67260;53.130;17.982;2023-02-01T04:52:12;99905.98;;;2.82;80.95
77013;BME280;67260;53.130;17.982;2023-02-01T04:54:39;99902.73;;;2.85;80.85
77013;BME280;67260;53.130;17.982;2023-02-01T04:57:05;99907.14;;;2.87;80.39
77013;BME280;67260;53.130;17.982;2023-02-01T04:59:32;99907.38;;;2.91;79.57
77013;BME280;67260;53.130;17.982;2023-02-01T05:01:59;99908.60;;;2.94;79.33
77013;BME280;67260;53.130;17.982;2023-02-01T05:04:26;99906.89;;;2.99;79.56
77013;BME280;67260;53.130;17.982;2023-02-01T05:06:52;99905.12;;;3.02;79.72
77013;BME280;67260;53.130;17.982;2023-02-01T05:09:19;99903.55;;;3.05;79.43
77013;BME280;67260;53.130;17.982;2023-02-01T05:11:47;99904.04;;;3.08;79.74
77013;BME280;67260;53.130;17.982;2023-02-01T05:14:33;99906.52;;;3.09;79.40
77013;BME280;67260;53.130;17.982;2023-02-01T05:16:59;99906.56;;;3.12;78.69
77013;BME280;67260;53.130;17.982;2023-02-01T05:19:26;99897.84;;;3.16;78.57
77013;BME280;67260;53.130;17.982;2023-02-01T05:21:52;99893.72;;;3.15;78.53
77013;BME280;67260;53.130;17.982;2023-02-01T05:24:19;99889.33;;;3.12;78.02
77013;BME280;67260;53.130;17.982;2023-02-01T05:26:48;99890.32;;;3.10;78.34
77013;BME280;67260;53.130;17.982;2023-02-01T05:29:16;99886.41;;;3.10;78.40
77013;BME280;67260;53.130;17.982;2023-02-01T05:31:47;99888.91;;;3.09;78.61
77013;BME280;67260;53.130;17.982;2023-02-01T05:34:14;99886.89;;;3.05;78.60
77013;BME280;67260;53.130;17.982;2023-02-01T05:36:41;99880.98;;;3.02;78.67
77013;BME280;67260;53.130;17.982;2023-02-01T05:39:08;99891.04;;;3.00;79.10
77013;BME280;67260;53.130;17.982;2023-02-01T05:41:36;99886.55;;;2.99;78.93
77013;BME280;67260;53.130;17.982;2023-02-01T05:44:03;99890.89;;;2.98;79.27
77013;BME280;67260;53.130;17.982;2023-02-01T05:46:30;99890.83;;;2.93;79.65
77013;BME280;67260;53.130;17.982;2023-02-01T05:48:57;99898.71;;;2.92;79.65
77013;BME280;67260;53.130;17.982;2023-02-01T05:51:24;99892.20;;;2.91;79.69
77013;BME280;67260;53.130;17.982;2023-02-01T05:53:50;99890.94;;;2.93;79.85
77013;BME280;67260;53.130;17.982;2023-02-01T05:56:17;99909.98;;;2.98;79.65
77013;BME280;67260;53.130;17.982;2023-02-01T05:58:44;99911.61;;;3.01;79.60
77013;BME280;67260;53.130;17.982;2023-02-01T06:01:10;99916.38;;;3.04;79.62
77013;BME280;67260;53.130;17.982;2023-02-01T06:03:37;99918.29;;;3.07;79.48
77013;BME280;67260;53.130;17.982;2023-02-01T06:06:04;99917.88;;;3.13;79.51
77013;BME280;67260;53.130;17.982;2023-02-01T06:08:31;99920.00;;;3.18;79.52
77013;BME280;67260;53.130;17.982;2023-02-01T06:11:00;99919.39;;;3.20;79.01
77013;BME280;67260;53.130;17.982;2023-02-01T06:13:27;99916.95;;;3.20;79.27
77013;BME280;67260;53.130;17.982;2023-02-01T06:15:54;99913.99;;;3.18;79.29
77013;BME280;67260;53.130;17.982;2023-02-01T06:18:23;99916.64;;;3.18;79.17
77013;BME280;67260;53.130;17.982;2023-02-01T06:20:54;99917.32;;;3.17;79.03
77013;BME280;67260;53.130;17.982;2023-02-01T06:23:21;99916.23;;;3.14;78.78
77013;BME280;67260;53.130;17.982;2023-02-01T06:25:59;99913.18;;;3.12;78.77
77013;BME280;67260;53.130;17.982;2023-02-01T06:28:26;99916.57;;;3.11;78.77
77013;BME280;67260;53.130;17.982;2023-02-01T06:30:54;99920.72;;;3.15;79.13
77013;BME280;67260;53.130;17.982;2023-02-01T06:33:22;99917.93;;;3.17;78.96
77013;BME280;67260;53.130;17.982;2023-02-01T06:35:48;99917.58;;;3.20;78.61
77013;BME280;67260;53.130;17.982;2023-02-01T06:38:15;99918.16;;;3.24;79.07
77013;BME280;67260;53.130;17.982;2023-02-01T06:40:42;99917.89;;;3.28;78.12
77013;BME280;67260;53.130;17.982;2023-02-01T06:43:09;99916.58;;;3.32;78.33
77013;BME280;67260;53.130;17.982;2023-02-01T06:45:35;99913.55;;;3.37;77.93
77013;BME280;67260;53.130;17.982;2023-02-01T06:48:02;99918.30;;;3.40;77.46
77013;BME280;67260;53.130;17.982;2023-02-01T06:50:29;99916.13;;;3.40;77.55
77013;BME280;67260;53.130;17.982;2023-02-01T06:52:55;99916.48;;;3.42;77.92
77013;BME280;67260;53.130;17.982;2023-02-01T06:55:22;99920.05;;;3.43;77.67
77013;BME280;67260;53.130;17.982;2023-02-01T06:57:53;99919.35;;;3.44;77.62
77013;BME280;67260;53.130;17.982;2023-02-01T07:00:21;99921.58;;;3.47;77.74
77013;BME280;67260;53.130;17.982;2023-02-01T07:02:48;99919.11;;;3.50;77.03
77013;BME280;67260;53.130;17.982;2023-02-01T07:05:15;99918.83;;;3.53;76.93
77013;BME280;67260;53.130;17.982;2023-02-01T07:07:42;99918.46;;;3.53;77.00
77013;BME280;67260;53.130;17.982;2023-02-01T07:10:09;99923.61;;;3.51;76.57
77013;BME280;67260;53.130;17.982;2023-02-01T07:12:36;99926.72;;;3.51;76.31
77013;BME280;67260;53.130;17.982;2023-02-01T07:15:05;99921.44;;;3.54;76.30
77013;BME280;67260;53.130;17.982;2023-02-01T07:17:31;99925.19;;;3.57;75.24
77013;BME280;67260;53.130;17.982;2023-02-01T07:19:58;99923.64;;;3.59;76.12
77013;BME280;67260;53.130;17.982;2023-02-01T07:22:26;99918.14;;;3.65;76.00
77013;BME280;67260;53.130;17.982;2023-02-01T07:24:53;99912.40;;;3.71;75.68
77013;BME280;67260;53.130;17.982;2023-02-01T07:27:20;99910.84;;;3.75;74.76
77013;BME280;67260;53.130;17.982;2023-02-01T07:29:47;99913.39;;;3.72;75.15
77013;BME280;67260;53.130;17.982;2023-02-01T07:32:14;99916.04;;;3.68;75.00
77013;BME280;67260;53.130;17.982;2023-02-01T07:34:44;99918.98;;;3.60;74.78
77013;BME280;67260;53.130;17.982;2023-02-01T07:37:11;99923.69;;;3.56;75.34
77013;BME280;67260;53.130;17.982;2023-02-01T07:39:38;99920.96;;;3.52;75.28
77013;BME280;67260;53.130;17.982;2023-02-01T07:42:05;99920.66;;;3.51;75.63
77013;BME280;67260;53.130;17.982;2023-02-01T07:44:32;99923.23;;;3.50;75.55
77013;BME280;67260;53.130;17.982;2023-02-01T07:46:59;99921.95;;;3.50;75.48
77013;BME280;67260;53.130;17.982;2023-02-01T07:49:25;99921.58;;;3.56;75.38
77013;BME280;67260;53.130;17.982;2023-02-01T07:51:52;99919.31;;;3.65;74.63
77013;BME280;67260;53.130;17.982;2023-02-01T07:54:19;99919.19;;;3.71;74.52
77013;BME280;67260;53.130;17.982;2023-02-01T07:56:45;99920.56;;;3.77;74.48
77013;BME280;67260;53.130;17.982;2023-02-01T07:59:12;99920.34;;;3.87;74.55
77013;BME280;67260;53.130;17.982;2023-02-01T08:01:39;99919.90;;;4.01;73.37
77013;BME280;67260;53.130;17.982;2023-02-01T08:04:05;99931.91;;;4.08;73.41
77013;BME280;67260;53.130;17.982;2023-02-01T08:06:33;99931.29;;;4.13;73.80
77013;BME280;67260;53.130;17.982;2023-02-01T08:09:01;99929.81;;;4.15;73.44
77013;BME280;67260;53.130;17.982;2023-02-01T08:11:28;99929.24;;;4.20;74.28
77013;BME280;67260;53.130;17.982;2023-02-01T08:13:55;99933.75;;;4.22;73.50
77013;BME280;67260;53.130;17.982;2023-02-01T08:16:23;99944.88;;;4.22;73.24
77013;BME280;67260;53.130;17.982;2023-02-01T08:18:51;99939.84;;;4.20;73.95
77013;BME280;67260;53.130;17.982;2023-02-01T08:21:20;99941.86;;;4.21;73.67
77013;BME280;67260;53.130;17.982;2023-02-01T08:23:49;99945.90;;;4.26;74.25
77013;BME280;67260;53.130;17.982;2023-02-01T08:26:20;99956.27;;;4.31;73.42
77013;BME280;67260;53.130;17.982;2023-02-01T08:28:51;99949.73;;;4.37;73.79
77013;BME280;67260;53.130;17.982;2023-02-01T08:31:20;99953.98;;;4.47;73.94
77013;BME280;67260;53.130;17.982;2023-02-01T08:33:50;99958.52;;;4.55;73.23
77013;BME280;67260;53.130;17.982;2023-02-01T08:36:17;99957.67;;;4.64;74.14
77013;BME280;67260;53.130;17.982;2023-02-01T08:38:44;99954.47;;;4.63;73.06
77013;BME280;67260;53.130;17.982;2023-02-01T08:41:13;99955.41;;;4.64;73.85
77013;BME280;67260;53.130;17.982;2023-02-01T08:43:41;99969.64;;;4.62;73.75
77013;BME280;67260;53.130;17.982;2023-02-01T08:46:09;99967.25;;;4.58;74.12
77013;BME280;67260;53.130;17.982;2023-02-01T08:48:36;99970.02;;;4.57;73.67
77013;BME280;67260;53.130;17.982;2023-02-01T08:51:05;99964.55;;;4.59;73.82
77013;BME280;67260;53.130;17.982;2023-02-01T08:53:33;99969.85;;;4.56;73.93
77013;BME280;67260;53.130;17.982;2023-02-01T08:56:00;99974.01;;;4.51;74.37
77013;BME280;67260;53.130;17.982;2023-02-01T08:58:27;99968.27;;;4.47;74.51
77013;BME280;67260;53.130;17.982;2023-02-01T09:00:54;99968.36;;;4.42;74.83
77013;BME280;67260;53.130;17.982;2023-02-01T09:03:21;99978.14;;;4.37;75.21
77013;BME280;67260;53.130;17.982;2023-02-01T09:05:48;99978.77;;;4.42;75.16
77013;BME280;67260;53.130;17.982;2023-02-01T09:08:15;99981.50;;;4.48;75.10
77013;BME280;67260;53.130;17.982;2023-02-01T09:10:42;99980.60;;;4.58;75.68
77013;BME280;67260;53.130;17.982;2023-02-01T09:13:09;99976.77;;;4.59;77.53
77013;BME280;67260;53.130;17.982;2023-02-01T09:15:37;99978.33;;;4.54;77.94
77013;BME280;67260;53.130;17.982;2023-02-01T09:18:03;99971.08;;;4.39;78.58
77013;BME280;67260;53.130;17.982;2023-02-01T09:20:30;99977.17;;;4.24;78.75
77013;BME280;67260;53.130;17.982;2023-02-01T09:22:57;99969.45;;;4.27;78.91
77013;BME280;67260;53.130;17.982;2023-02-01T09:25:24;99963.27;;;4.34;79.20
77013;BME280;67260;53.130;17.982;2023-02-01T09:27:51;99967.13;;;4.34;79.42
77013;BME280;67260;53.130;17.982;2023-02-01T09:30:17;99961.50;;;4.29;79.01
77013;BME280;67260;53.130;17.982;2023-02-01T09:32:44;99953.55;;;4.38;78.95
77013;BME280;67260;53.130;17.982;2023-02-01T09:35:11;99952.61;;;4.52;78.52
77013;BME280;67260;53.130;17.982;2023-02-01T09:37:37;99940.92;;;4.60;77.36
77013;BME280;67260;53.130;17.982;2023-02-01T09:40:05;99948.92;;;4.67;77.65
77013;BME280;67260;53.130;17.982;2023-02-01T09:43:00;99953.56;;;4.73;77.31
77013;BME280;67260;53.130;17.982;2023-02-01T09:46:28;99940.23;;;4.80;76.90
77013;BME280;67260;53.130;17.982;2023-02-01T09:48:38;99936.71;;;4.80;76.40
77013;BME280;67260;53.130;17.982;2023-02-01T09:51:15;99936.88;;;4.76;76.56
77013;BME280;67260;53.130;17.982;2023-02-01T09:53:48;99938.95;;;4.76;76.36
77013;BME280;67260;53.130;17.982;2023-02-01T09:56:24;99936.83;;;4.79;76.44
77013;BME280;67260;53.130;17.982;2023-02-01T09:59:08;99942.64;;;4.83;75.68
77013;BME280;67260;53.130;17.982;2023-02-01T10:01:37;99933.20;;;4.90;75.90
77013;BME280;67260;53.130;17.982;2023-02-01T10:04:08;99930.28;;;4.89;75.59
77013;BME280;67260;53.130;17.982;2023-02-01T10:06:48;99924.66;;;4.89;75.88
77013;BME280;67260;53.130;17.982;2023-02-01T10:20:12;99917.45;;;4.84;75.84
77013;BME280;67260;53.130;17.982;2023-02-01T10:25:38;99916.33;;;5.00;74.01
77013;BME280;67260;53.130;17.982;2023-02-01T10:28:13;99912.91;;;5.23;73.67
77013;BME280;67260;53.130;17.982;2023-02-01T10:30:46;99914.91;;;5.39;73.64
77013;BME280;67260;53.130;17.982;2023-02-01T10:33:32;99911.31;;;5.40;73.89
77013;BME280;67260;53.130;17.982;2023-02-01T10:36:13;99914.48;;;5.47;73.16
77013;BME280;67260;53.130;17.982;2023-02-01T10:38:43;99917.86;;;5.55;72.92
77013;BME280;67260;53.130;17.982;2023-02-01T10:43:41;99928.98;;;5.44;72.99
77013;BME280;67260;53.130;17.982;2023-02-01T10:46:08;99926.38;;;5.37;73.13
77013;BME280;67260;53.130;17.982;2023-02-01T10:48:36;99918.81;;;5.39;73.66
77013;BME280;67260;53.130;17.982;2023-02-01T10:51:13;99917.66;;;5.42;73.79
77013;BME280;67260;53.130;17.982;2023-02-01T10:53:57;99916.73;;;5.48;72.94
77013;BME280;67260;53.130;17.982;2023-02-01T10:56:28;99914.17;;;5.49;72.63
77013;BME280;67260;53.130;17.982;2023-02-01T10:59:01;99911.94;;;5.56;73.32
77013;BME280;67260;53.130;17.982;2023-02-01T11:01:40;99907.93;;;5.71;73.35
77013;BME280;67260;53.130;17.982;2023-02-01T11:04:11;99905.44;;;5.75;72.83
77013;BME280;67260;53.130;17.982;2023-02-01T11:06:42;99904.72;;;5.67;72.36
77013;BME280;67260;53.130;17.982;2023-02-01T11:11:58;99901.82;;;5.64;72.25
77013;BME280;67260;53.130;17.982;2023-02-01T11:16:52;99898.82;;;5.56;72.65
77013;BME280;67260;53.130;17.982;2023-02-01T11:19:19;99896.97;;;5.52;72.68
77013;BME280;67260;53.130;17.982;2023-02-01T11:21:51;99888.73;;;5.50;73.06
77013;BME280;67260;53.130;17.982;2023-02-01T11:26:49;99887.91;;;5.56;72.53
77013;BME280;67260;53.130;17.982;2023-02-01T11:29:18;99879.51;;;5.59;72.55
77013;BME280;67260;53.130;17.982;2023-02-01T11:31:50;99880.92;;;5.59;72.30
77013;BME280;67260;53.130;17.982;2023-02-01T11:34:21;99882.00;;;5.57;72.38
77013;BME280;67260;53.130;17.982;2023-02-01T11:36:49;99878.55;;;5.63;72.73
77013;BME280;67260;53.130;17.982;2023-02-01T11:44:41;99878.98;;;5.76;72.28
77013;BME280;67260;53.130;17.982;2023-02-01T11:47:38;99886.70;;;5.79;72.17
77013;BME280;67260;53.130;17.982;2023-02-01T11:50:14;99881.74;;;6.01;71.45
77013;BME280;67260;53.130;17.982;2023-02-01T11:53:23;99868.30;;;6.31;71.17
77013;BME280;67260;53.130;17.982;2023-02-01T11:56:10;99880.98;;;6.48;70.47
77013;BME280;67260;53.130;17.982;2023-02-01T12:01:33;99871.95;;;6.54;69.94
77013;BME280;67260;53.130;17.982;2023-02-01T12:04:14;99862.02;;;6.60;70.16
77013;BME280;67260;53.130;17.982;2023-02-01T12:06:51;99866.61;;;6.71;69.04
77013;BME280;67260;53.130;17.982;2023-02-01T12:20:24;99862.30;;;6.66;67.67
77013;BME280;67260;53.130;17.982;2023-02-01T12:26:21;99862.92;;;6.42;68.53
77013;BME280;67260;53.130;17.982;2023-02-01T12:29:00;99865.13;;;6.21;68.78
77013;BME280;67260;53.130;17.982;2023-02-01T12:34:24;99858.91;;;6.01;68.94
77013;BME280;67260;53.130;17.982;2023-02-01T12:37:13;99855.43;;;6.03;69.30
77013;BME280;67260;53.130;17.982;2023-02-01T12:42:43;99856.88;;;5.98;69.67
77013;BME280;67260;53.130;17.982;2023-02-01T12:45:40;99859.50;;;5.88;69.82
77013;BME280;67260;53.130;17.982;2023-02-01T12:50:55;99855.30;;;5.67;70.40
77013;BME280;67260;53.130;17.982;2023-02-01T12:53:42;99854.37;;;5.60;70.23
77013;BME280;67260;53.130;17.982;2023-02-01T12:56:16;99862.41;;;5.54;70.62
77013;BME280;67260;53.130;17.982;2023-02-01T12:58:51;99868.95;;;5.48;70.84
77013;BME280;67260;53.130;17.982;2023-02-01T13:01:24;99863.19;;;5.48;71.02
77013;BME280;67260;53.130;17.982;2023-02-01T13:04:09;99861.63;;;5.52;71.08
77013;BME280;67260;53.130;17.982;2023-02-01T13:06:53;99867.52;;;5.53;70.52
77013;BME280;67260;53.130;17.982;2023-02-01T13:09:29;99864.43;;;5.53;70.61
77013;BME280;67260;53.130;17.982;2023-02-01T13:12:10;99868.64;;;5.52;71.10
77013;BME280;67260;53.130;17.982;2023-02-01T13:14:46;99871.85;;;5.52;70.65
77013;BME280;67260;53.130;17.982;2023-02-01T13:17:29;99868.19;;;5.57;71.09
77013;BME280;67260;53.130;17.982;2023-02-01T13:20:21;99874.48;;;5.50;70.93
77013;BME280;67260;53.130;17.982;2023-02-01T13:22:54;99874.31;;;5.45;71.01
77013;BME280;67260;53.130;17.982;2023-02-01T13:27:54;99879.65;;;5.36;71.76
77013;BME280;67260;53.130;17.982;2023-02-01T13:30:26;99886.05;;;5.37;71.80
77013;BME280;67260;53.130;17.982;2023-02-01T13:38:06;99881.06;;;5.42;71.55
77013;BME280;67260;53.130;17.982;2023-02-01T13:40:46;99882.90;;;5.44;71.57
77013;BME280;67260;53.130;17.982;2023-02-01T13:43:28;99883.16;;;5.46;71.53
77013;BME280;67260;53.130;17.982;2023-02-01T13:46:01;99877.56;;;5.46;71.44
77013;BME280;67260;53.130;17.982;2023-02-01T13:48:35;99877.89;;;5.40;71.41
77013;BME280;67260;53.130;17.982;2023-02-01T13:51:05;99874.45;;;5.34;71.60
77013;BME280;67260;53.130;17.982;2023-02-01T13:53:34;99877.60;;;5.33;71.84
77013;BME280;67260;53.130;17.982;2023-02-01T13:56:18;99880.30;;;5.35;71.72
77013;BME280;67260;53.130;17.982;2023-02-01T13:58:48;99888.42;;;5.39;71.92
77013;BME280;67260;53.130;17.982;2023-02-01T14:03:57;99891.67;;;5.40;71.78
77013;BME280;67260;53.130;17.982;2023-02-01T14:19:32;99883.58;;;5.14;72.03
77013;BME280;67260;53.130;17.982;2023-02-01T14:22:46;99886.36;;;5.13;72.14
77013;BME280;67260;53.130;17.982;2023-02-01T14:24:52;99892.73;;;5.09;71.96
77013;BME280;67260;53.130;17.982;2023-02-01T14:27:25;99888.76;;;5.07;71.82
77013;BME280;67260;53.130;17.982;2023-02-01T14:29:58;99892.77;;;5.08;72.02
77013;BME280;67260;53.130;17.982;2023-02-01T14:32:31;99892.48;;;5.07;72.16
77013;BME280;67260;53.130;17.982;2023-02-01T14:35:02;99894.35;;;5.07;72.10
77013;BME280;67260;53.130;17.982;2023-02-01T14:37:38;99894.12;;;5.10;72.12
77013;BME280;67260;53.130;17.982;2023-02-01T14:40:06;99890.85;;;5.06;71.79
77013;BME280;67260;53.130;17.982;2023-02-01T14:47:51;99886.95;;;4.98;71.85
77013;BME280;67260;53.130;17.982;2023-02-01T14:55:53;99893.60;;;4.89;72.13
77013;BME280;67260;53.130;17.982;2023-02-01T15:00:58;99894.33;;;4.89;71.22
77013;BME280;67260;53.130;17.982;2023-02-01T15:05:59;99891.67;;;4.83;71.71
77013;BME280;67260;53.130;17.982;2023-02-01T15:08:38;99889.71;;;4.80;72.07
77013;BME280;67260;53.130;17.982;2023-02-01T15:11:11;99893.21;;;4.77;71.63
77013;BME280;67260;53.130;17.982;2023-02-01T15:13:40;99899.96;;;4.77;71.84
77013;BME280;67260;53.130;17.982;2023-02-01T15:16:13;99896.41;;;4.77;72.10
77013;BME280;67260;53.130;17.982;2023-02-01T15:18:41;99895.95;;;4.75;72.34
77013;BME280;67260;53.130;17.982;2023-02-01T15:21:20;99896.85;;;4.72;72.66
77013;BME280;67260;53.130;17.982;2023-02-01T15:23:48;99894.39;;;4.68;72.81
77013;BME280;67260;53.130;17.982;2023-02-01T15:26:28;99902.16;;;4.66;72.84
77013;BME280;67260;53.130;17.982;2023-02-01T15:28:59;99902.45;;;4.65;73.06
77013;BME280;67260;53.130;17.982;2023-02-01T15:31:38;99905.64;;;4.60;73.08
77013;BME280;67260;53.130;17.982;2023-02-01T15:34:07;99909.23;;;4.54;73.46
77013;BME280;67260;53.130;17.982;2023-02-01T15:36:34;99902.92;;;4.43;73.62
77013;BME280;67260;53.130;17.982;2023-02-01T15:42:09;99912.48;;;4.22;74.62
77013;BME280;67260;53.130;17.982;2023-02-01T15:44:38;99914.77;;;4.15;74.54
77013;BME280;67260;53.130;17.982;2023-02-01T15:47:17;99908.59;;;4.05;74.92
77013;BME280;67260;53.130;17.982;2023-02-01T15:49:59;99918.62;;;4.02;74.81
77013;BME280;67260;53.130;17.982;2023-02-01T15:52:37;99918.02;;;4.02;74.85
77013;BME280;67260;53.130;17.982;2023-02-01T15:55:16;99916.48;;;3.99;75.23
77013;BME280;67260;53.130;17.982;2023-02-01T15:57:44;99920.67;;;3.95;75.48
77013;BME280;67260;53.130;17.982;2023-02-01T16:00:22;99924.54;;;3.93;75.40
77013;BME280;67260;53.130;17.982;2023-02-01T16:02:58;99928.81;;;3.95;75.20
77013;BME280;67260;53.130;17.982;2023-02-01T16:05:45;99925.85;;;3.99;75.41
77013;BME280;67260;53.130;17.982;2023-02-01T16:08:21;99927.24;;;4.00;75.30
77013;BME280;67260;53.130;17.982;2023-02-01T16:10:51;99930.20;;;4.00;75.27
77013;BME280;67260;53.130;17.982;2023-02-01T16:13:22;99929.20;;;4.01;75.34
77013;BME280;67260;53.130;17.982;2023-02-01T16:15:49;99932.85;;;4.04;75.22
77013;BME280;67260;53.130;17.982;2023-02-01T16:18:16;99938.33;;;4.07;75.00
77013;BME280;67260;53.130;17.982;2023-02-01T16:20:43;99940.06;;;4.07;74.92
77013;BME280;67260;53.130;17.982;2023-02-01T16:23:09;99939.15;;;4.07;74.99
77013;BME280;67260;53.130;17.982;2023-02-01T16:25:37;99936.14;;;4.06;75.07
77013;BME280;67260;53.130;17.982;2023-02-01T16:28:07;99937.44;;;4.07;74.74
77013;BME280;67260;53.130;17.982;2023-02-01T16:30:35;99938.30;;;4.10;74.59
77013;BME280;67260;53.130;17.982;2023-02-01T16:33:02;99933.43;;;4.09;74.59
77013;BME280;67260;53.130;17.982;2023-02-01T16:35:33;99931.52;;;4.08;74.51
77013;BME280;67260;53.130;17.982;2023-02-01T16:38:15;99933.04;;;4.07;74.63
77013;BME280;67260;53.130;17.982;2023-02-01T16:40:46;99930.80;;;4.10;74.68
77013;BME280;67260;53.130;17.982;2023-02-01T16:43:14;99930.89;;;4.10;74.78
77013;BME280;67260;53.130;17.982;2023-02-01T16:45:43;99922.44;;;4.09;74.81
77013;BME280;67260;53.130;17.982;2023-02-01T16:48:26;99917.95;;;4.07;74.59
77013;BME280;67260;53.130;17.982;2023-02-01T16:51:04;99918.61;;;4.00;74.62
77013;BME280;67260;53.130;17.982;2023-02-01T16:53:35;99922.78;;;3.98;74.81
77013;BME280;67260;53.130;17.982;2023-02-01T16:56:01;99926.20;;;3.94;74.95
77013;BME280;67260;53.130;17.982;2023-02-01T16:58:31;99926.17;;;3.88;75.23
77013;BME280;67260;53.130;17.982;2023-02-01T17:00:57;99931.14;;;3.82;75.47
77013;BME280;67260;53.130;17.982;2023-02-01T17:03:24;99933.75;;;3.78;75.77
77013;BME280;67260;53.130;17.982;2023-02-01T17:05:54;99930.45;;;3.76;75.80
77013;BME280;67260;53.130;17.982;2023-02-01T17:08:36;99925.09;;;3.74;75.90
77013;BME280;67260;53.130;17.982;2023-02-01T17:11:04;99924.71;;;3.70;75.90
77013;BME280;67260;53.130;17.982;2023-02-01T17:13:32;99921.95;;;3.65;76.35
77013;BME280;67260;53.130;17.982;2023-02-01T17:16:29;99914.52;;;3.57;76.36
77013;BME280;67260;53.130;17.982;2023-02-01T17:18:59;99908.58;;;3.48;76.54
77013;BME280;67260;53.130;17.982;2023-02-01T17:21:27;99906.02;;;3.41;76.47
77013;BME280;67260;53.130;17.982;2023-02-01T17:23:55;99899.30;;;3.35;76.90
77013;BME280;67260;53.130;17.982;2023-02-01T17:26:24;99903.72;;;3.28;76.80
77013;BME280;67260;53.130;17.982;2023-02-01T17:28:51;99898.14;;;3.22;77.01
77013;BME280;67260;53.130;17.982;2023-02-01T17:31:18;99898.34;;;3.19;77.43
77013;BME280;67260;53.130;17.982;2023-02-01T17:33:44;99898.86;;;3.19;77.27
77013;BME280;67260;53.130;17.982;2023-02-01T17:36:14;99895.86;;;3.21;77.70
77013;BME280;67260;53.130;17.982;2023-02-01T17:38:42;99897.94;;;3.22;77.70
77013;BME280;67260;53.130;17.982;2023-02-01T17:41:10;99900.85;;;3.23;77.38
77013;BME280;67260;53.130;17.982;2023-02-01T17:43:38;99901.52;;;3.19;77.69
77013;BME280;67260;53.130;17.982;2023-02-01T17:46:13;99903.78;;;3.13;77.83
77013;BME280;67260;53.130;17.982;2023-02-01T17:48:41;99908.09;;;3.11;77.83
77013;BME280;67260;53.130;17.982;2023-02-01T17:51:19;99907.24;;;3.12;78.18
77013;BME280;67260;53.130;17.982;2023-02-01T17:53:46;99903.58;;;3.16;78.02
77013;BME280;67260;53.130;17.982;2023-02-01T17:56:15;99899.08;;;3.20;77.74
77013;BME280;67260;53.130;17.982;2023-02-01T17:58:43;99899.50;;;3.24;77.71